AUA729 LOWW-LQSA
Flight info
| Callsign | AUA729 |
|---|---|
| Flight time | 0h 45m |
| Altitude | 31000 |
| Route | STEIN4B/16 STEIN DCT NOHAT DCT KOPRY DCT LURID DCT BOSNA |
| Aircraft | A320/M-SDE3FGHIRWY/LB1 |
Departure
| Time | 2026-05-04 18:59 |
|---|---|
| Airport | Vienna International Airport (LOWW) |
Arrival
| Time | 2026-05-04 19:45 |
|---|---|
| Airport | Sarajevo International Airport (LQSA) |
| Time | Latitude | Longitude | Altitude | Speed | Heading |
|---|---|---|---|---|---|
| 2026-05-04 18:39 | 48.11862 | 16.56876 | 615 ft | 0 kts | 206° |
| 2026-05-04 18:50 | 48.11866 | 16.56880 | 688 ft | 4 kts | 205° |
| 2026-05-04 18:51 | 48.11891 | 16.56895 | 597 ft | 4 kts | 197° |
| 2026-05-04 18:51 | 48.11917 | 16.56903 | 617 ft | 4 kts | 174° |
| 2026-05-04 18:51 | 48.11937 | 16.56891 | 628 ft | 2 kts | 117° |
| 2026-05-04 18:51 | 48.11937 | 16.56889 | 628 ft | 0 kts | 116° |
| 2026-05-04 18:53 | 48.11924 | 16.56932 | 616 ft | 9 kts | 117° |
| 2026-05-04 18:54 | 48.11889 | 16.57029 | 619 ft | 12 kts | 117° |
| 2026-05-04 18:54 | 48.11856 | 16.57150 | 615 ft | 13 kts | 98° |
| 2026-05-04 18:54 | 48.11839 | 16.57283 | 611 ft | 11 kts | 83° |
| 2026-05-04 18:54 | 48.11844 | 16.57335 | 611 ft | 1 kts | 60° |
| 2026-05-04 18:55 | 48.11851 | 16.57333 | 621 ft | 2 kts | 4° |
| 2026-05-04 18:55 | 48.11931 | 16.57299 | 611 ft | 5 kts | 343° |
| 2026-05-04 18:55 | 48.11973 | 16.57310 | 616 ft | 10 kts | 36° |
| 2026-05-04 18:56 | 48.12000 | 16.57381 | 615 ft | 0 kts | 71° |
| 2026-05-04 18:56 | 48.12000 | 16.57384 | 615 ft | 3 kts | 72° |
| 2026-05-04 18:56 | 48.12009 | 16.57492 | 616 ft | 12 kts | 99° |
| 2026-05-04 18:56 | 48.11997 | 16.57574 | 611 ft | 0 kts | 103° |
| 2026-05-04 18:58 | 48.11996 | 16.57586 | 611 ft | 6 kts | 103° |
| 2026-05-04 18:58 | 48.11979 | 16.57684 | 611 ft | 14 kts | 104° |
| 2026-05-04 18:58 | 48.11928 | 16.57828 | 620 ft | 17 kts | 142° |
| 2026-05-04 18:59 | 48.11807 | 16.57888 | 617 ft | 26 kts | 163° |
| 2026-05-04 18:59 | 48.11379 | 16.58072 | 614 ft | 99 kts | 164° |
| 2026-05-04 18:59 | 48.10523 | 16.58436 | 634 ft | 151 kts | 163° |
| 2026-05-04 18:59 | 48.09518 | 16.58858 | 1305 ft | 150 kts | 165° |
| 2026-05-04 19:00 | 48.08522 | 16.59278 | 2063 ft | 149 kts | 167° |
| 2026-05-04 19:00 | 48.07508 | 16.59707 | 2725 ft | 159 kts | 167° |
| 2026-05-04 19:00 | 48.06373 | 16.60181 | 3067 ft | 181 kts | 168° |
| 2026-05-04 19:00 | 48.05075 | 16.60722 | 3407 ft | 206 kts | 168° |
| 2026-05-04 19:01 | 48.03615 | 16.61332 | 3860 ft | 230 kts | 167° |
| 2026-05-04 19:01 | 48.02008 | 16.62007 | 4492 ft | 247 kts | 167° |
| 2026-05-04 19:01 | 48.00331 | 16.62718 | 5341 ft | 254 kts | 166° |
| 2026-05-04 19:01 | 47.98585 | 16.63298 | 6198 ft | 260 kts | 175° |
| 2026-05-04 19:02 | 47.96755 | 16.63318 | 7001 ft | 267 kts | 183° |
| 2026-05-04 19:02 | 47.94887 | 16.63201 | 7908 ft | 269 kts | 182° |
| 2026-05-04 19:02 | 47.93001 | 16.63417 | 8790 ft | 274 kts | 174° |
| 2026-05-04 19:02 | 47.91099 | 16.63775 | 9725 ft | 277 kts | 173° |
| 2026-05-04 19:03 | 47.89159 | 16.64165 | 10417 ft | 289 kts | 173° |
| 2026-05-04 19:03 | 47.87086 | 16.64588 | 10714 ft | 313 kts | 173° |
| 2026-05-04 19:03 | 47.84870 | 16.65040 | 11192 ft | 327 kts | 174° |
| 2026-05-04 19:03 | 47.82612 | 16.65502 | 12029 ft | 329 kts | 174° |
| 2026-05-04 19:04 | 47.80366 | 16.65955 | 12824 ft | 332 kts | 174° |
| 2026-05-04 19:04 | 47.78066 | 16.66414 | 13586 ft | 336 kts | 174° |
| 2026-05-04 19:04 | 47.75720 | 16.66879 | 14253 ft | 341 kts | 174° |
| 2026-05-04 19:04 | 47.73344 | 16.67354 | 14882 ft | 347 kts | 173° |
| 2026-05-04 19:05 | 47.70944 | 16.67837 | 15620 ft | 349 kts | 173° |
| 2026-05-04 19:05 | 47.68493 | 16.68329 | 16297 ft | 353 kts | 173° |
| 2026-05-04 19:05 | 47.66070 | 16.68815 | 16887 ft | 359 kts | 173° |
| 2026-05-04 19:05 | 47.63560 | 16.69319 | 17650 ft | 360 kts | 173° |
| 2026-05-04 19:06 | 47.61093 | 16.69809 | 18232 ft | 365 kts | 173° |
| 2026-05-04 19:06 | 47.58565 | 16.70307 | 18881 ft | 367 kts | 173° |
| 2026-05-04 19:06 | 47.56017 | 16.70807 | 19402 ft | 372 kts | 174° |
| 2026-05-04 19:06 | 47.53432 | 16.71315 | 19947 ft | 376 kts | 174° |
| 2026-05-04 19:07 | 47.50821 | 16.71828 | 20510 ft | 381 kts | 174° |
| 2026-05-04 19:07 | 47.48186 | 16.72345 | 21067 ft | 384 kts | 174° |
| 2026-05-04 19:07 | 47.45519 | 16.72868 | 21605 ft | 389 kts | 173° |
| 2026-05-04 19:07 | 47.42820 | 16.73399 | 22116 ft | 394 kts | 174° |
| 2026-05-04 19:08 | 47.40085 | 16.73939 | 22638 ft | 399 kts | 174° |
| 2026-05-04 19:08 | 47.37318 | 16.74481 | 23143 ft | 403 kts | 173° |
| 2026-05-04 19:08 | 47.34520 | 16.75029 | 23655 ft | 407 kts | 173° |
| 2026-05-04 19:08 | 47.31697 | 16.75586 | 24074 ft | 411 kts | 173° |
| 2026-05-04 19:09 | 47.28844 | 16.76148 | 24477 ft | 415 kts | 174° |
| 2026-05-04 19:09 | 47.25970 | 16.76714 | 24910 ft | 418 kts | 173° |
| 2026-05-04 19:09 | 47.23074 | 16.77284 | 25313 ft | 422 kts | 173° |
| 2026-05-04 19:09 | 47.20158 | 16.77855 | 25719 ft | 424 kts | 173° |
| 2026-05-04 19:10 | 47.17220 | 16.78429 | 26104 ft | 428 kts | 173° |
| 2026-05-04 19:10 | 47.14262 | 16.79005 | 26487 ft | 431 kts | 173° |
| 2026-05-04 19:10 | 47.11277 | 16.79584 | 26864 ft | 434 kts | 173° |
| 2026-05-04 19:10 | 47.08278 | 16.80170 | 27238 ft | 437 kts | 173° |
| 2026-05-04 19:11 | 47.05253 | 16.80757 | 27605 ft | 440 kts | 173° |
| 2026-05-04 19:11 | 47.02212 | 16.81346 | 27979 ft | 443 kts | 173° |
| 2026-05-04 19:11 | 46.99190 | 16.81931 | 28335 ft | 445 kts | 173° |
| 2026-05-04 19:11 | 46.96070 | 16.82532 | 28678 ft | 448 kts | 173° |
| 2026-05-04 19:12 | 46.93002 | 16.83122 | 29001 ft | 452 kts | 173° |
| 2026-05-04 19:12 | 46.86734 | 16.84325 | 29652 ft | 457 kts | 173° |
| 2026-05-04 19:12 | 46.83576 | 16.84930 | 29965 ft | 460 kts | 173° |
| 2026-05-04 19:13 | 46.80395 | 16.85543 | 30078 ft | 461 kts | 173° |
| 2026-05-04 19:13 | 46.74035 | 16.86770 | 30079 ft | 461 kts | 173° |
| 2026-05-04 19:14 | 46.67659 | 16.87990 | 30099 ft | 462 kts | 173° |
| 2026-05-04 19:14 | 46.61286 | 16.89215 | 30099 ft | 462 kts | 173° |
| 2026-05-04 19:15 | 46.54901 | 16.90436 | 30102 ft | 462 kts | 173° |
| 2026-05-04 19:15 | 46.48511 | 16.91652 | 30096 ft | 464 kts | 173° |
| 2026-05-04 19:16 | 46.42101 | 16.92864 | 30098 ft | 465 kts | 173° |
| 2026-05-04 19:16 | 46.35691 | 16.94081 | 30094 ft | 463 kts | 173° |
| 2026-05-04 19:16 | 46.32545 | 16.94677 | 30093 ft | 449 kts | 173° |
| 2026-05-04 19:17 | 46.29468 | 16.95257 | 30096 ft | 444 kts | 174° |
| 2026-05-04 19:17 | 46.23380 | 16.96550 | 30095 ft | 442 kts | 167° |
| 2026-05-04 19:18 | 46.17441 | 16.98931 | 30099 ft | 442 kts | 165° |
| 2026-05-04 19:18 | 46.11515 | 17.01318 | 30100 ft | 442 kts | 165° |
| 2026-05-04 19:19 | 46.05617 | 17.03677 | 30098 ft | 443 kts | 165° |
| 2026-05-04 19:19 | 45.99671 | 17.06064 | 30095 ft | 443 kts | 165° |
| 2026-05-04 19:20 | 45.93729 | 17.08436 | 30092 ft | 443 kts | 165° |
| 2026-05-04 19:20 | 45.87782 | 17.10810 | 30079 ft | 443 kts | 165° |
| 2026-05-04 19:21 | 45.81836 | 17.13167 | 30083 ft | 444 kts | 165° |
| 2026-05-04 19:21 | 45.75876 | 17.15522 | 30090 ft | 445 kts | 165° |
| 2026-05-04 19:22 | 45.69912 | 17.17884 | 30089 ft | 445 kts | 165° |
| 2026-05-04 19:22 | 45.63937 | 17.20249 | 30089 ft | 445 kts | 165° |
| 2026-05-04 19:23 | 45.57958 | 17.22605 | 30082 ft | 446 kts | 165° |
| 2026-05-04 19:23 | 45.51969 | 17.24955 | 30084 ft | 447 kts | 165° |
| 2026-05-04 19:24 | 45.45965 | 17.27294 | 30091 ft | 447 kts | 165° |
| 2026-05-04 19:24 | 45.39957 | 17.29644 | 30098 ft | 448 kts | 165° |
| 2026-05-04 19:25 | 45.33949 | 17.32003 | 30105 ft | 448 kts | 164° |
| 2026-05-04 19:25 | 45.27931 | 17.34351 | 30101 ft | 449 kts | 165° |
| 2026-05-04 19:26 | 45.21901 | 17.36683 | 30076 ft | 450 kts | 165° |
| 2026-05-04 19:26 | 45.18874 | 17.37858 | 29791 ft | 451 kts | 165° |
| 2026-05-04 19:26 | 45.15853 | 17.39028 | 29498 ft | 449 kts | 165° |
| 2026-05-04 19:26 | 45.12855 | 17.40202 | 28961 ft | 445 kts | 163° |
| 2026-05-04 19:27 | 45.09909 | 17.41474 | 28414 ft | 440 kts | 162° |
| 2026-05-04 19:27 | 45.07023 | 17.42836 | 27884 ft | 435 kts | 160° |
| 2026-05-04 19:27 | 45.04176 | 17.44248 | 27353 ft | 431 kts | 160° |
| 2026-05-04 19:27 | 45.01362 | 17.45658 | 26842 ft | 427 kts | 160° |
| 2026-05-04 19:28 | 44.98569 | 17.47041 | 26346 ft | 424 kts | 160° |
| 2026-05-04 19:28 | 44.95793 | 17.48390 | 25865 ft | 420 kts | 160° |
| 2026-05-04 19:28 | 44.93038 | 17.49709 | 25370 ft | 417 kts | 160° |
| 2026-05-04 19:28 | 44.90297 | 17.51005 | 24899 ft | 413 kts | 160° |
| 2026-05-04 19:29 | 44.87582 | 17.52277 | 24416 ft | 410 kts | 160° |
| 2026-05-04 19:29 | 44.84882 | 17.53542 | 23958 ft | 407 kts | 160° |
| 2026-05-04 19:29 | 44.82206 | 17.54802 | 23447 ft | 405 kts | 160° |
| 2026-05-04 19:29 | 44.79550 | 17.56060 | 22969 ft | 400 kts | 160° |
| 2026-05-04 19:30 | 44.76960 | 17.57288 | 22506 ft | 396 kts | 160° |
| 2026-05-04 19:30 | 44.74359 | 17.58515 | 22036 ft | 393 kts | 160° |
| 2026-05-04 19:30 | 44.71778 | 17.59729 | 21560 ft | 390 kts | 160° |
| 2026-05-04 19:30 | 44.69218 | 17.60928 | 21079 ft | 387 kts | 160° |
| 2026-05-04 19:31 | 44.66674 | 17.62121 | 20608 ft | 384 kts | 160° |
| 2026-05-04 19:31 | 44.64143 | 17.63305 | 20136 ft | 382 kts | 160° |
| 2026-05-04 19:31 | 44.61628 | 17.64484 | 19647 ft | 380 kts | 160° |
| 2026-05-04 19:31 | 44.59121 | 17.65661 | 19160 ft | 379 kts | 160° |
| 2026-05-04 19:32 | 44.56628 | 17.66832 | 18676 ft | 378 kts | 160° |
| 2026-05-04 19:32 | 44.54134 | 17.68003 | 18160 ft | 377 kts | 160° |
| 2026-05-04 19:32 | 44.51659 | 17.69159 | 17674 ft | 374 kts | 160° |
| 2026-05-04 19:32 | 44.49200 | 17.70305 | 17201 ft | 371 kts | 160° |
| 2026-05-04 19:33 | 44.46760 | 17.71442 | 16726 ft | 368 kts | 160° |
| 2026-05-04 19:33 | 44.44338 | 17.72571 | 16264 ft | 366 kts | 160° |
| 2026-05-04 19:33 | 44.41922 | 17.73698 | 15806 ft | 365 kts | 160° |
| 2026-05-04 19:33 | 44.39523 | 17.74814 | 15355 ft | 363 kts | 160° |
| 2026-05-04 19:34 | 44.37137 | 17.75969 | 14873 ft | 361 kts | 155° |
| 2026-05-04 19:34 | 44.34897 | 17.77525 | 14411 ft | 358 kts | 150° |
| 2026-05-04 19:34 | 44.32690 | 17.79124 | 13939 ft | 357 kts | 150° |
| 2026-05-04 19:34 | 44.30485 | 17.80713 | 13438 ft | 355 kts | 150° |
| 2026-05-04 19:35 | 44.28294 | 17.82286 | 12965 ft | 353 kts | 150° |
| 2026-05-04 19:35 | 44.26121 | 17.83846 | 12487 ft | 350 kts | 150° |
| 2026-05-04 19:35 | 44.23967 | 17.85394 | 12005 ft | 347 kts | 150° |
| 2026-05-04 19:35 | 44.21829 | 17.86931 | 11536 ft | 345 kts | 150° |
| 2026-05-04 19:36 | 44.19707 | 17.88455 | 11049 ft | 342 kts | 150° |
| 2026-05-04 19:36 | 44.17594 | 17.89972 | 10569 ft | 340 kts | 151° |
| 2026-05-04 19:36 | 44.15512 | 17.91462 | 10339 ft | 331 kts | 151° |
| 2026-05-04 19:36 | 44.13504 | 17.92897 | 10215 ft | 318 kts | 151° |
| 2026-05-04 19:37 | 44.11574 | 17.94279 | 10035 ft | 308 kts | 151° |
| 2026-05-04 19:37 | 44.09660 | 17.95649 | 9560 ft | 309 kts | 151° |
| 2026-05-04 19:37 | 44.07759 | 17.97007 | 9153 ft | 305 kts | 151° |
| 2026-05-04 19:37 | 44.05875 | 17.98352 | 8761 ft | 303 kts | 151° |
| 2026-05-04 19:38 | 44.04013 | 17.99683 | 8367 ft | 300 kts | 152° |
| 2026-05-04 19:38 | 44.02211 | 18.00958 | 7988 ft | 287 kts | 154° |
| 2026-05-04 19:38 | 44.00358 | 18.01896 | 7623 ft | 273 kts | 160° |
| 2026-05-04 19:38 | 43.98596 | 18.02722 | 7270 ft | 261 kts | 160° |
| 2026-05-04 19:39 | 43.96942 | 18.03502 | 6950 ft | 249 kts | 160° |
| 2026-05-04 19:39 | 43.95331 | 18.04262 | 6619 ft | 240 kts | 160° |
| 2026-05-04 19:39 | 43.94288 | 18.04785 | 6398 ft | 233 kts | 154° |
| 2026-05-04 19:39 | 43.92603 | 18.06451 | 5985 ft | 218 kts | 129° |
| 2026-05-04 19:40 | 43.91766 | 18.08134 | 5727 ft | 207 kts | 114° |
| 2026-05-04 19:40 | 43.91340 | 18.09313 | 5570 ft | 198 kts | 115° |
| 2026-05-04 19:40 | 43.90530 | 18.11495 | 5195 ft | 184 kts | 116° |
| 2026-05-04 19:40 | 43.90141 | 18.12535 | 5000 ft | 176 kts | 116° |
| 2026-05-04 19:41 | 43.89594 | 18.13998 | 4702 ft | 165 kts | 117° |
| 2026-05-04 19:41 | 43.89085 | 18.15358 | 4383 ft | 155 kts | 117° |
| 2026-05-04 19:41 | 43.88603 | 18.16652 | 4099 ft | 148 kts | 117° |
| 2026-05-04 19:41 | 43.88136 | 18.17907 | 3828 ft | 145 kts | 117° |
| 2026-05-04 19:42 | 43.87684 | 18.19136 | 3730 ft | 143 kts | 117° |
| 2026-05-04 19:42 | 43.87229 | 18.20364 | 3586 ft | 143 kts | 117° |
| 2026-05-04 19:42 | 43.86776 | 18.21583 | 3432 ft | 142 kts | 117° |
| 2026-05-04 19:42 | 43.86331 | 18.22792 | 3250 ft | 140 kts | 117° |
| 2026-05-04 19:43 | 43.85884 | 18.23989 | 3053 ft | 139 kts | 118° |
| 2026-05-04 19:43 | 43.85441 | 18.25176 | 2861 ft | 138 kts | 117° |
| 2026-05-04 19:43 | 43.85000 | 18.26358 | 2657 ft | 138 kts | 118° |
| 2026-05-04 19:43 | 43.84559 | 18.27519 | 2457 ft | 138 kts | 118° |
| 2026-05-04 19:44 | 43.84121 | 18.28694 | 2248 ft | 137 kts | 118° |
| 2026-05-04 19:44 | 43.83686 | 18.29865 | 2027 ft | 136 kts | 118° |
| 2026-05-04 19:44 | 43.83252 | 18.31031 | 1807 ft | 136 kts | 118° |
| 2026-05-04 19:44 | 43.82820 | 18.32179 | 1668 ft | 130 kts | 119° |
| 2026-05-04 19:45 | 43.82461 | 18.33148 | 1672 ft | 91 kts | 117° |
| 2026-05-04 19:45 | 43.82285 | 18.33624 | 1684 ft | 24 kts | 107° |
| 2026-05-04 19:45 | 43.82333 | 18.33671 | 1688 ft | 8 kts | 351° |
| 2026-05-04 19:45 | 43.82388 | 18.33655 | 1691 ft | 8 kts | 345° |
| 2026-05-04 19:46 | 43.82442 | 18.33641 | 1685 ft | 8 kts | 4° |
| 2026-05-04 19:46 | 43.82489 | 18.33666 | 1683 ft | 5 kts | 22° |
| 2026-05-04 19:46 | 43.82509 | 18.33680 | 1687 ft | 2 kts | 28° |
| 2026-05-04 19:46 | 43.82511 | 18.33682 | 1686 ft | 0 kts | 28° |
| 2026-05-04 19:47 | 43.82516 | 18.33685 | 1688 ft | 1 kts | 28° |
| 2026-05-04 19:47 | 43.82518 | 18.33687 | 1687 ft | 0 kts | 28° |